sensor_id;sensor_type;location;lat;lon;timestamp;P1;durP1;ratioP1;P2;durP2;ratioP2
20443;SDS011;10381;53.730;10.010;2023-12-04T00:00:47;26.43;;;10.03;;
20443;SDS011;10381;53.730;10.010;2023-12-04T00:04:47;29.00;;;11.93;;
20443;SDS011;10381;53.730;10.010;2023-12-04T00:08:48;26.00;;;10.67;;
20443;SDS011;10381;53.730;10.010;2023-12-04T00:12:48;36.93;;;12.37;;
20443;SDS011;10381;53.730;10.010;2023-12-04T00:16:49;25.23;;;9.65;;
20443;SDS011;10381;53.730;10.010;2023-12-04T00:20:50;28.73;;;11.23;;
20443;SDS011;10381;53.730;10.010;2023-12-04T00:24:50;17.57;;;7.70;;
20443;SDS011;10381;53.730;10.010;2023-12-04T00:28:50;18.57;;;9.07;;
20443;SDS011;10381;53.730;10.010;2023-12-04T00:32:50;30.20;;;11.63;;
20443;SDS011;10381;53.730;10.010;2023-12-04T00:36:51;17.57;;;7.63;;
20443;SDS011;10381;53.730;10.010;2023-12-04T00:40:51;20.50;;;9.40;;
20443;SDS011;10381;53.730;10.010;2023-12-04T00:44:51;26.13;;;10.90;;
20443;SDS011;10381;53.730;10.010;2023-12-04T00:48:51;33.17;;;11.17;;
20443;SDS011;10381;53.730;10.010;2023-12-04T00:52:52;16.60;;;8.10;;
20443;SDS011;10381;53.730;10.010;2023-12-04T00:56:52;18.33;;;8.77;;
20443;SDS011;10381;53.730;10.010;2023-12-04T01:00:52;19.37;;;7.10;;
20443;SDS011;10381;53.730;10.010;2023-12-04T01:04:52;15.30;;;8.00;;
20443;SDS011;10381;53.730;10.010;2023-12-04T01:08:53;21.30;;;8.50;;
20443;SDS011;10381;53.730;10.010;2023-12-04T01:12:54;12.52;;;6.90;;
20443;SDS011;10381;53.730;10.010;2023-12-04T01:16:54;21.00;;;8.93;;
20443;SDS011;10381;53.730;10.010;2023-12-04T01:20:55;26.05;;;9.73;;
20443;SDS011;10381;53.730;10.010;2023-12-04T01:24:55;22.63;;;8.67;;
20443;SDS011;10381;53.730;10.010;2023-12-04T01:28:55;22.20;;;9.70;;
20443;SDS011;10381;53.730;10.010;2023-12-04T01:32:56;27.05;;;9.07;;
20443;SDS011;10381;53.730;10.010;2023-12-04T01:36:56;15.83;;;7.27;;
20443;SDS011;10381;53.730;10.010;2023-12-04T01:40:56;18.33;;;8.30;;
20443;SDS011;10381;53.730;10.010;2023-12-04T01:44:56;32.67;;;9.00;;
20443;SDS011;10381;53.730;10.010;2023-12-04T01:48:57;30.40;;;8.98;;
20443;SDS011;10381;53.730;10.010;2023-12-04T01:52:58;21.92;;;8.10;;
20443;SDS011;10381;53.730;10.010;2023-12-04T01:56:59;22.52;;;9.38;;
20443;SDS011;10381;53.730;10.010;2023-12-04T02:00:59;18.95;;;7.70;;
20443;SDS011;10381;53.730;10.010;2023-12-04T02:05:00;26.02;;;8.65;;
20443;SDS011;10381;53.730;10.010;2023-12-04T02:09:02;24.48;;;8.55;;
20443;SDS011;10381;53.730;10.010;2023-12-04T02:13:02;26.30;;;9.52;;
20443;SDS011;10381;53.730;10.010;2023-12-04T02:17:05;19.85;;;8.95;;
20443;SDS011;10381;53.730;10.010;2023-12-04T02:21:06;24.48;;;7.47;;
20443;SDS011;10381;53.730;10.010;2023-12-04T02:25:07;19.80;;;9.95;;
20443;SDS011;10381;53.730;10.010;2023-12-04T02:29:10;18.27;;;8.48;;
20443;SDS011;10381;53.730;10.010;2023-12-04T02:33:14;23.55;;;10.27;;
20443;SDS011;10381;53.730;10.010;2023-12-04T02:37:16;24.38;;;9.45;;
20443;SDS011;10381;53.730;10.010;2023-12-04T02:41:19;19.70;;;8.85;;
20443;SDS011;10381;53.730;10.010;2023-12-04T02:45:19;23.42;;;8.23;;
20443;SDS011;10381;53.730;10.010;2023-12-04T02:49:19;20.92;;;9.55;;
20443;SDS011;10381;53.730;10.010;2023-12-04T02:53:20;17.77;;;9.00;;
20443;SDS011;10381;53.730;10.010;2023-12-04T02:57:20;22.97;;;8.53;;
20443;SDS011;10381;53.730;10.010;2023-12-04T03:01:21;16.20;;;7.55;;
20443;SDS011;10381;53.730;10.010;2023-12-04T03:05:21;14.70;;;7.55;;
20443;SDS011;10381;53.730;10.010;2023-12-04T03:09:22;28.53;;;8.13;;
20443;SDS011;10381;53.730;10.010;2023-12-04T03:13:22;20.98;;;7.75;;
20443;SDS011;10381;53.730;10.010;2023-12-04T03:17:23;39.72;;;10.95;;
20443;SDS011;10381;53.730;10.010;2023-12-04T03:21:24;16.20;;;8.70;;
20443;SDS011;10381;53.730;10.010;2023-12-04T03:25:25;12.77;;;8.18;;
20443;SDS011;10381;53.730;10.010;2023-12-04T03:29:25;19.43;;;10.53;;
20443;SDS011;10381;53.730;10.010;2023-12-04T03:33:25;16.00;;;8.40;;
20443;SDS011;10381;53.730;10.010;2023-12-04T03:37:26;20.07;;;7.37;;
20443;SDS011;10381;53.730;10.010;2023-12-04T03:41:26;35.50;;;9.77;;
20443;SDS011;10381;53.730;10.010;2023-12-04T03:45:27;21.08;;;8.93;;
20443;SDS011;10381;53.730;10.010;2023-12-04T03:49:28;32.92;;;10.95;;
20443;SDS011;10381;53.730;10.010;2023-12-04T03:53:28;27.53;;;10.63;;
20443;SDS011;10381;53.730;10.010;2023-12-04T03:57:28;24.25;;;9.98;;
20443;SDS011;10381;53.730;10.010;2023-12-04T04:01:29;18.48;;;8.63;;
20443;SDS011;10381;53.730;10.010;2023-12-04T04:05:29;14.73;;;8.60;;
20443;SDS011;10381;53.730;10.010;2023-12-04T04:09:29;16.42;;;8.02;;
20443;SDS011;10381;53.730;10.010;2023-12-04T04:13:29;12.70;;;7.60;;
20443;SDS011;10381;53.730;10.010;2023-12-04T04:17:30;29.33;;;9.57;;
20443;SDS011;10381;53.730;10.010;2023-12-04T04:21:30;19.63;;;10.50;;
20443;SDS011;10381;53.730;10.010;2023-12-04T04:25:30;17.57;;;8.00;;
20443;SDS011;10381;53.730;10.010;2023-12-04T04:29:30;22.47;;;8.43;;
20443;SDS011;10381;53.730;10.010;2023-12-04T04:33:31;12.87;;;7.03;;
20443;SDS011;10381;53.730;10.010;2023-12-04T04:37:31;16.60;;;8.83;;
20443;SDS011;10381;53.730;10.010;2023-12-04T04:41:31;16.27;;;8.23;;
20443;SDS011;10381;53.730;10.010;2023-12-04T04:45:32;36.40;;;10.07;;
20443;SDS011;10381;53.730;10.010;2023-12-04T04:49:32;12.80;;;7.93;;
20443;SDS011;10381;53.730;10.010;2023-12-04T04:53:32;13.80;;;9.93;;
20443;SDS011;10381;53.730;10.010;2023-12-04T04:57:32;18.93;;;9.13;;
20443;SDS011;10381;53.730;10.010;2023-12-04T05:01:33;15.40;;;9.93;;
20443;SDS011;10381;53.730;10.010;2023-12-04T05:05:33;17.77;;;8.73;;
20443;SDS011;10381;53.730;10.010;2023-12-04T05:09:33;14.15;;;9.77;;
20443;SDS011;10381;53.730;10.010;2023-12-04T05:13:33;25.33;;;10.80;;
20443;SDS011;10381;53.730;10.010;2023-12-04T05:17:34;23.80;;;10.82;;
20443;SDS011;10381;53.730;10.010;2023-12-04T05:21:34;19.03;;;9.80;;
20443;SDS011;10381;53.730;10.010;2023-12-04T05:25:34;23.33;;;10.15;;
20443;SDS011;10381;53.730;10.010;2023-12-04T05:29:35;21.07;;;9.83;;
20443;SDS011;10381;53.730;10.010;2023-12-04T05:33:35;22.57;;;10.97;;
20443;SDS011;10381;53.730;10.010;2023-12-04T05:37:35;21.17;;;9.20;;
20443;SDS011;10381;53.730;10.010;2023-12-04T05:41:35;19.83;;;9.93;;
20443;SDS011;10381;53.730;10.010;2023-12-04T05:45:36;18.07;;;10.30;;
20443;SDS011;10381;53.730;10.010;2023-12-04T05:49:36;25.53;;;11.30;;
20443;SDS011;10381;53.730;10.010;2023-12-04T05:53:36;21.20;;;10.63;;
20443;SDS011;10381;53.730;10.010;2023-12-04T05:57:38;21.73;;;9.77;;
20443;SDS011;10381;53.730;10.010;2023-12-04T06:01:39;21.83;;;10.20;;
20443;SDS011;10381;53.730;10.010;2023-12-04T06:05:39;18.33;;;9.20;;
20443;SDS011;10381;53.730;10.010;2023-12-04T06:09:39;13.87;;;8.70;;
20443;SDS011;10381;53.730;10.010;2023-12-04T06:13:39;25.43;;;9.97;;
20443;SDS011;10381;53.730;10.010;2023-12-04T06:17:40;19.10;;;9.53;;
20443;SDS011;10381;53.730;10.010;2023-12-04T06:21:40;38.28;;;10.35;;
20443;SDS011;10381;53.730;10.010;2023-12-04T06:25:40;21.65;;;9.27;;
20443;SDS011;10381;53.730;10.010;2023-12-04T06:29:41;27.35;;;11.23;;
20443;SDS011;10381;53.730;10.010;2023-12-04T06:33:41;15.93;;;10.48;;
20443;SDS011;10381;53.730;10.010;2023-12-04T06:37:42;16.13;;;8.98;;
20443;SDS011;10381;53.730;10.010;2023-12-04T06:41:43;25.92;;;10.82;;
20443;SDS011;10381;53.730;10.010;2023-12-04T06:45:46;12.13;;;9.93;;
20443;SDS011;10381;53.730;10.010;2023-12-04T06:49:47;17.48;;;8.93;;
20443;SDS011;10381;53.730;10.010;2023-12-04T06:53:47;32.40;;;11.13;;
20443;SDS011;10381;53.730;10.010;2023-12-04T06:57:48;22.67;;;11.40;;
20443;SDS011;10381;53.730;10.010;2023-12-04T07:01:55;25.42;;;11.25;;
20443;SDS011;10381;53.730;10.010;2023-12-04T07:06:01;14.45;;;10.23;;
20443;SDS011;10381;53.730;10.010;2023-12-04T07:10:02;38.95;;;12.65;;
20443;SDS011;10381;53.730;10.010;2023-12-04T07:14:02;20.45;;;10.48;;
20443;SDS011;10381;53.730;10.010;2023-12-04T07:18:03;29.10;;;11.47;;
20443;SDS011;10381;53.730;10.010;2023-12-04T07:22:03;31.15;;;11.05;;
20443;SDS011;10381;53.730;10.010;2023-12-04T07:26:04;32.97;;;11.83;;
20443;SDS011;10381;53.730;10.010;2023-12-04T07:30:06;25.05;;;11.13;;
20443;SDS011;10381;53.730;10.010;2023-12-04T07:34:07;21.60;;;11.52;;
20443;SDS011;10381;53.730;10.010;2023-12-04T07:38:07;22.63;;;9.43;;
20443;SDS011;10381;53.730;10.010;2023-12-04T07:42:07;27.33;;;11.23;;
20443;SDS011;10381;53.730;10.010;2023-12-04T07:46:08;19.63;;;10.60;;
20443;SDS011;10381;53.730;10.010;2023-12-04T07:50:09;25.80;;;9.43;;
20443;SDS011;10381;53.730;10.010;2023-12-04T07:54:10;28.13;;;12.48;;
20443;SDS011;10381;53.730;10.010;2023-12-04T07:58:10;25.08;;;11.98;;
20443;SDS011;10381;53.730;10.010;2023-12-04T08:02:10;18.97;;;11.60;;
20443;SDS011;10381;53.730;10.010;2023-12-04T08:06:11;31.08;;;11.88;;
20443;SDS011;10381;53.730;10.010;2023-12-04T08:10:11;31.30;;;10.55;;
20443;SDS011;10381;53.730;10.010;2023-12-04T08:14:12;32.83;;;10.77;;
20443;SDS011;10381;53.730;10.010;2023-12-04T08:18:12;36.10;;;10.37;;
20443;SDS011;10381;53.730;10.010;2023-12-04T08:22:14;22.00;;;10.77;;
20443;SDS011;10381;53.730;10.010;2023-12-04T08:26:21;22.23;;;11.10;;
20443;SDS011;10381;53.730;10.010;2023-12-04T08:30:22;25.20;;;10.57;;
20443;SDS011;10381;53.730;10.010;2023-12-04T08:34:22;21.57;;;10.27;;
20443;SDS011;10381;53.730;10.010;2023-12-04T08:38:23;16.83;;;8.73;;
20443;SDS011;10381;53.730;10.010;2023-12-04T08:42:23;16.67;;;10.30;;
20443;SDS011;10381;53.730;10.010;2023-12-04T08:46:23;27.13;;;12.40;;
20443;SDS011;10381;53.730;10.010;2023-12-04T08:50:23;23.77;;;11.23;;
20443;SDS011;10381;53.730;10.010;2023-12-04T08:54:25;22.42;;;10.25;;
20443;SDS011;10381;53.730;10.010;2023-12-04T08:58:25;16.67;;;11.07;;
20443;SDS011;10381;53.730;10.010;2023-12-04T09:02:25;28.67;;;10.82;;
20443;SDS011;10381;53.730;10.010;2023-12-04T09:06:26;18.30;;;9.13;;
20443;SDS011;10381;53.730;10.010;2023-12-04T09:10:26;19.17;;;11.77;;
20443;SDS011;10381;53.730;10.010;2023-12-04T09:14:26;34.87;;;14.50;;
20443;SDS011;10381;53.730;10.010;2023-12-04T09:18:27;23.00;;;10.80;;
20443;SDS011;10381;53.730;10.010;2023-12-04T09:22:28;21.43;;;11.30;;
20443;SDS011;10381;53.730;10.010;2023-12-04T09:26:28;13.83;;;9.63;;
20443;SDS011;10381;53.730;10.010;2023-12-04T09:30:28;27.02;;;13.38;;
20443;SDS011;10381;53.730;10.010;2023-12-04T09:34:29;38.60;;;14.50;;
20443;SDS011;10381;53.730;10.010;2023-12-04T09:38:29;23.92;;;11.75;;
20443;SDS011;10381;53.730;10.010;2023-12-04T09:42:30;29.90;;;14.37;;
20443;SDS011;10381;53.730;10.010;2023-12-04T09:46:30;18.92;;;10.65;;
20443;SDS011;10381;53.730;10.010;2023-12-04T09:50:31;20.02;;;12.18;;
20443;SDS011;10381;53.730;10.010;2023-12-04T09:54:31;15.30;;;11.05;;
20443;SDS011;10381;53.730;10.010;2023-12-04T09:58:33;24.80;;;14.27;;
20443;SDS011;10381;53.730;10.010;2023-12-04T10:02:36;24.08;;;11.18;;
20443;SDS011;10381;53.730;10.010;2023-12-04T10:06:38;21.33;;;13.32;;
20443;SDS011;10381;53.730;10.010;2023-12-04T10:10:41;25.75;;;13.50;;
20443;SDS011;10381;53.730;10.010;2023-12-04T10:14:41;32.53;;;13.23;;
20443;SDS011;10381;53.730;10.010;2023-12-04T10:18:41;27.52;;;12.75;;
20443;SDS011;10381;53.730;10.010;2023-12-04T10:26:53;30.10;;;12.77;;
20443;SDS011;10381;53.730;10.010;2023-12-04T10:30:54;31.92;;;16.45;;
20443;SDS011;10381;53.730;10.010;2023-12-04T10:34:54;24.85;;;15.88;;
20443;SDS011;10381;53.730;10.010;2023-12-04T10:38:58;28.27;;;15.13;;
20443;SDS011;10381;53.730;10.010;2023-12-04T10:47:22;23.05;;;16.08;;
20443;SDS011;10381;53.730;10.010;2023-12-04T10:51:23;32.05;;;15.13;;
20443;SDS011;10381;53.730;10.010;2023-12-04T10:55:23;30.13;;;15.95;;
20443;SDS011;10381;53.730;10.010;2023-12-04T10:59:25;30.50;;;16.52;;
20443;SDS011;10381;53.730;10.010;2023-12-04T11:03:33;33.72;;;16.98;;
20443;SDS011;10381;53.730;10.010;2023-12-04T11:07:38;31.52;;;14.98;;
20443;SDS011;10381;53.730;10.010;2023-12-04T11:11:40;26.92;;;16.17;;
20443;SDS011;10381;53.730;10.010;2023-12-04T11:15:47;26.15;;;16.58;;
20443;SDS011;10381;53.730;10.010;2023-12-04T11:19:53;27.33;;;15.60;;
20443;SDS011;10381;53.730;10.010;2023-12-04T11:23:58;30.25;;;18.63;;
20443;SDS011;10381;53.730;10.010;2023-12-04T11:27:59;37.97;;;19.35;;
20443;SDS011;10381;53.730;10.010;2023-12-04T11:31:59;26.10;;;16.23;;
20443;SDS011;10381;53.730;10.010;2023-12-04T11:36:07;19.57;;;14.53;;
20443;SDS011;10381;53.730;10.010;2023-12-04T11:40:10;32.95;;;18.98;;
20443;SDS011;10381;53.730;10.010;2023-12-04T11:44:12;37.22;;;17.90;;
20443;SDS011;10381;53.730;10.010;2023-12-04T11:48:14;32.83;;;19.65;;
20443;SDS011;10381;53.730;10.010;2023-12-04T11:52:14;32.38;;;20.65;;
20443;SDS011;10381;53.730;10.010;2023-12-04T11:56:15;24.88;;;17.20;;
20443;SDS011;10381;53.730;10.010;2023-12-04T12:04:17;31.73;;;17.85;;
20443;SDS011;10381;53.730;10.010;2023-12-04T12:08:18;25.05;;;16.85;;
20443;SDS011;10381;53.730;10.010;2023-12-04T12:12:19;23.40;;;17.23;;
20443;SDS011;10381;53.730;10.010;2023-12-04T12:16:19;25.85;;;15.18;;
20443;SDS011;10381;53.730;10.010;2023-12-04T12:20:19;34.43;;;15.17;;
20443;SDS011;10381;53.730;10.010;2023-12-04T12:24:20;26.13;;;15.57;;
20443;SDS011;10381;53.730;10.010;2023-12-04T12:28:20;22.17;;;15.60;;
20443;SDS011;10381;53.730;10.010;2023-12-04T12:32:21;28.98;;;14.65;;
20443;SDS011;10381;53.730;10.010;2023-12-04T12:36:22;34.43;;;14.63;;
20443;SDS011;10381;53.730;10.010;2023-12-04T12:40:23;20.15;;;13.02;;
20443;SDS011;10381;53.730;10.010;2023-12-04T12:44:23;21.20;;;13.35;;
20443;SDS011;10381;53.730;10.010;2023-12-04T12:48:24;22.85;;;13.70;;
20443;SDS011;10381;53.730;10.010;2023-12-04T12:52:26;24.88;;;13.57;;
20443;SDS011;10381;53.730;10.010;2023-12-04T12:56:27;28.13;;;14.60;;
20443;SDS011;10381;53.730;10.010;2023-12-04T13:00:28;26.40;;;15.85;;
20443;SDS011;10381;53.730;10.010;2023-12-04T13:04:38;29.58;;;16.25;;
20443;SDS011;10381;53.730;10.010;2023-12-04T13:08:41;24.83;;;15.43;;
20443;SDS011;10381;53.730;10.010;2023-12-04T13:12:41;33.40;;;15.30;;
20443;SDS011;10381;53.730;10.010;2023-12-04T13:16:41;24.05;;;13.90;;
20443;SDS011;10381;53.730;10.010;2023-12-04T13:20:41;32.93;;;16.10;;
20443;SDS011;10381;53.730;10.010;2023-12-04T13:24:43;16.40;;;12.95;;
20443;SDS011;10381;53.730;10.010;2023-12-04T13:28:43;27.30;;;14.43;;
20443;SDS011;10381;53.730;10.010;2023-12-04T13:32:43;24.88;;;13.52;;
20443;SDS011;10381;53.730;10.010;2023-12-04T13:36:44;25.35;;;13.93;;
20443;SDS011;10381;53.730;10.010;2023-12-04T13:40:44;25.95;;;13.95;;
20443;SDS011;10381;53.730;10.010;2023-12-04T13:44:59;16.45;;;11.70;;
20443;SDS011;10381;53.730;10.010;2023-12-04T13:49:00;19.52;;;12.23;;
20443;SDS011;10381;53.730;10.010;2023-12-04T13:53:01;37.22;;;13.60;;
20443;SDS011;10381;53.730;10.010;2023-12-04T13:57:01;24.90;;;12.23;;
20443;SDS011;10381;53.730;10.010;2023-12-04T14:01:04;17.45;;;12.27;;
20443;SDS011;10381;53.730;10.010;2023-12-04T14:05:13;19.55;;;12.23;;
20443;SDS011;10381;53.730;10.010;2023-12-04T14:09:15;20.60;;;12.45;;
20443;SDS011;10381;53.730;10.010;2023-12-04T14:13:16;22.27;;;11.50;;
20443;SDS011;10381;53.730;10.010;2023-12-04T14:17:16;16.10;;;9.23;;
20443;SDS011;10381;53.730;10.010;2023-12-04T14:21:16;13.88;;;9.18;;
20443;SDS011;10381;53.730;10.010;2023-12-04T14:25:17;21.02;;;10.75;;
20443;SDS011;10381;53.730;10.010;2023-12-04T14:29:17;14.90;;;9.75;;
20443;SDS011;10381;53.730;10.010;2023-12-04T14:33:17;22.93;;;9.80;;
20443;SDS011;10381;53.730;10.010;2023-12-04T14:37:17;20.30;;;10.60;;
20443;SDS011;10381;53.730;10.010;2023-12-04T14:41:18;17.90;;;10.40;;
20443;SDS011;10381;53.730;10.010;2023-12-04T14:45:18;21.48;;;9.60;;
20443;SDS011;10381;53.730;10.010;2023-12-04T14:49:19;15.55;;;9.95;;
20443;SDS011;10381;53.730;10.010;2023-12-04T14:53:19;20.17;;;10.30;;
20443;SDS011;10381;53.730;10.010;2023-12-04T14:57:30;19.83;;;10.88;;
20443;SDS011;10381;53.730;10.010;2023-12-04T15:01:40;16.88;;;8.00;;
20443;SDS011;10381;53.730;10.010;2023-12-04T15:05:49;19.80;;;9.80;;
20443;SDS011;10381;53.730;10.010;2023-12-04T15:10:18;17.45;;;9.07;;
20443;SDS011;10381;53.730;10.010;2023-12-04T15:14:41;13.15;;;8.90;;
20443;SDS011;10381;53.730;10.010;2023-12-04T15:19:14;19.25;;;8.05;;
20443;SDS011;10381;53.730;10.010;2023-12-04T15:23:36;20.55;;;7.78;;
20443;SDS011;10381;53.730;10.010;2023-12-04T15:27:37;9.52;;;6.75;;
20443;SDS011;10381;53.730;10.010;2023-12-04T15:31:37;15.93;;;7.43;;
20443;SDS011;10381;53.730;10.010;2023-12-04T15:35:39;19.65;;;8.77;;
20443;SDS011;10381;53.730;10.010;2023-12-04T15:39:41;10.23;;;7.72;;
20443;SDS011;10381;53.730;10.010;2023-12-04T15:43:41;12.40;;;8.57;;
20443;SDS011;10381;53.730;10.010;2023-12-04T15:47:44;12.60;;;7.82;;
20443;SDS011;10381;53.730;10.010;2023-12-04T15:51:44;20.95;;;8.27;;
20443;SDS011;10381;53.730;10.010;2023-12-04T15:55:45;20.05;;;10.30;;
20443;SDS011;10381;53.730;10.010;2023-12-04T15:59:46;17.80;;;7.75;;
20443;SDS011;10381;53.730;10.010;2023-12-04T16:03:47;17.90;;;9.03;;
20443;SDS011;10381;53.730;10.010;2023-12-04T16:07:47;14.83;;;8.63;;
20443;SDS011;10381;53.730;10.010;2023-12-04T16:11:48;14.18;;;8.25;;
20443;SDS011;10381;53.730;10.010;2023-12-04T16:15:49;17.42;;;9.30;;
20443;SDS011;10381;53.730;10.010;2023-12-04T16:19:49;14.67;;;7.97;;
20443;SDS011;10381;53.730;10.010;2023-12-04T16:23:50;13.80;;;9.60;;
20443;SDS011;10381;53.730;10.010;2023-12-04T16:27:57;25.83;;;9.38;;
20443;SDS011;10381;53.730;10.010;2023-12-04T16:31:58;15.30;;;9.30;;
20443;SDS011;10381;53.730;10.010;2023-12-04T16:35:59;21.48;;;8.70;;
20443;SDS011;10381;53.730;10.010;2023-12-04T16:40:00;20.10;;;8.77;;
20443;SDS011;10381;53.730;10.010;2023-12-04T16:44:00;18.70;;;9.73;;
20443;SDS011;10381;53.730;10.010;2023-12-04T16:48:00;18.30;;;10.00;;
20443;SDS011;10381;53.730;10.010;2023-12-04T16:52:01;19.02;;;9.57;;
20443;SDS011;10381;53.730;10.010;2023-12-04T16:56:01;32.38;;;9.10;;
20443;SDS011;10381;53.730;10.010;2023-12-04T17:00:03;15.98;;;8.90;;
20443;SDS011;10381;53.730;10.010;2023-12-04T17:04:04;13.38;;;9.10;;
20443;SDS011;10381;53.730;10.010;2023-12-04T17:08:05;15.10;;;8.80;;
20443;SDS011;10381;53.730;10.010;2023-12-04T17:12:05;15.53;;;8.97;;
20443;SDS011;10381;53.730;10.010;2023-12-04T17:16:06;11.10;;;8.43;;
20443;SDS011;10381;53.730;10.010;2023-12-04T17:20:06;15.68;;;10.20;;
20443;SDS011;10381;53.730;10.010;2023-12-04T17:24:07;12.93;;;9.10;;
20443;SDS011;10381;53.730;10.010;2023-12-04T17:28:07;15.13;;;9.70;;
20443;SDS011;10381;53.730;10.010;2023-12-04T17:32:09;20.30;;;10.10;;
20443;SDS011;10381;53.730;10.010;2023-12-04T17:36:10;12.25;;;8.90;;
20443;SDS011;10381;53.730;10.010;2023-12-04T17:40:10;15.82;;;10.00;;
20443;SDS011;10381;53.730;10.010;2023-12-04T17:44:11;14.23;;;9.63;;
20443;SDS011;10381;53.730;10.010;2023-12-04T17:48:12;15.63;;;9.90;;
20443;SDS011;10381;53.730;10.010;2023-12-04T17:52:13;16.88;;;9.65;;
20443;SDS011;10381;53.730;10.010;2023-12-04T17:56:14;13.23;;;8.97;;
20443;SDS011;10381;53.730;10.010;2023-12-04T18:00:14;16.42;;;9.43;;
20443;SDS011;10381;53.730;10.010;2023-12-04T18:04:16;14.85;;;10.45;;
20443;SDS011;10381;53.730;10.010;2023-12-04T18:08:16;21.60;;;12.27;;
20443;SDS011;10381;53.730;10.010;2023-12-04T18:12:17;15.03;;;11.03;;
20443;SDS011;10381;53.730;10.010;2023-12-04T18:16:17;13.77;;;10.73;;
20443;SDS011;10381;53.730;10.010;2023-12-04T18:20:19;16.48;;;9.98;;
20443;SDS011;10381;53.730;10.010;2023-12-04T18:24:20;24.13;;;11.60;;
20443;SDS011;10381;53.730;10.010;2023-12-04T18:28:20;12.63;;;9.30;;
20443;SDS011;10381;53.730;10.010;2023-12-04T18:32:20;11.45;;;9.13;;
20443;SDS011;10381;53.730;10.010;2023-12-04T18:36:21;14.65;;;8.85;;
20443;SDS011;10381;53.730;10.010;2023-12-04T18:40:22;11.98;;;9.18;;
20443;SDS011;10381;53.730;10.010;2023-12-04T18:44:22;10.95;;;9.68;;
20443;SDS011;10381;53.730;10.010;2023-12-04T18:48:23;13.07;;;9.85;;
20443;SDS011;10381;53.730;10.010;2023-12-04T18:52:26;17.00;;;9.63;;
20443;SDS011;10381;53.730;10.010;2023-12-04T18:56:28;8.93;;;8.00;;
20443;SDS011;10381;53.730;10.010;2023-12-04T19:00:28;12.27;;;9.70;;
20443;SDS011;10381;53.730;10.010;2023-12-04T19:04:29;11.80;;;8.50;;
20443;SDS011;10381;53.730;10.010;2023-12-04T19:08:29;13.52;;;8.10;;
20443;SDS011;10381;53.730;10.010;2023-12-04T19:12:29;10.53;;;8.53;;
20443;SDS011;10381;53.730;10.010;2023-12-04T19:16:30;14.23;;;9.33;;
20443;SDS011;10381;53.730;10.010;2023-12-04T19:20:30;24.98;;;10.10;;
20443;SDS011;10381;53.730;10.010;2023-12-04T19:24:30;12.02;;;7.72;;
20443;SDS011;10381;53.730;10.010;2023-12-04T19:28:31;12.48;;;9.63;;
20443;SDS011;10381;53.730;10.010;2023-12-04T19:32:31;9.10;;;8.10;;
20443;SDS011;10381;53.730;10.010;2023-12-04T19:36:31;13.35;;;8.23;;
20443;SDS011;10381;53.730;10.010;2023-12-04T19:40:32;11.73;;;8.27;;
20443;SDS011;10381;53.730;10.010;2023-12-04T19:44:33;10.10;;;7.32;;
20443;SDS011;10381;53.730;10.010;2023-12-04T19:48:33;13.55;;;8.30;;
20443;SDS011;10381;53.730;10.010;2023-12-04T19:52:34;12.35;;;8.27;;
20443;SDS011;10381;53.730;10.010;2023-12-04T19:56:34;6.97;;;6.10;;
20443;SDS011;10381;53.730;10.010;2023-12-04T20:00:34;20.25;;;8.55;;
20443;SDS011;10381;53.730;10.010;2023-12-04T20:04:39;8.33;;;7.20;;
20443;SDS011;10381;53.730;10.010;2023-12-04T20:08:40;17.65;;;8.77;;
20443;SDS011;10381;53.730;10.010;2023-12-04T20:12:40;13.37;;;7.70;;
20443;SDS011;10381;53.730;10.010;2023-12-04T20:16:40;16.13;;;8.10;;
20443;SDS011;10381;53.730;10.010;2023-12-04T20:20:41;10.15;;;8.00;;
20443;SDS011;10381;53.730;10.010;2023-12-04T20:24:42;11.68;;;7.95;;
20443;SDS011;10381;53.730;10.010;2023-12-04T20:28:47;17.85;;;7.55;;
20443;SDS011;10381;53.730;10.010;2023-12-04T20:32:48;14.15;;;7.47;;
20443;SDS011;10381;53.730;10.010;2023-12-04T20:36:49;12.60;;;6.82;;
20443;SDS011;10381;53.730;10.010;2023-12-04T20:40:49;10.88;;;7.05;;
20443;SDS011;10381;53.730;10.010;2023-12-04T20:44:49;8.07;;;6.30;;
20443;SDS011;10381;53.730;10.010;2023-12-04T20:48:50;12.25;;;7.72;;
20443;SDS011;10381;53.730;10.010;2023-12-04T20:52:52;12.65;;;6.55;;
20443;SDS011;10381;53.730;10.010;2023-12-04T20:56:52;29.27;;;9.45;;
20443;SDS011;10381;53.730;10.010;2023-12-04T21:00:52;23.10;;;8.43;;
20443;SDS011;10381;53.730;10.010;2023-12-04T21:04:53;9.73;;;6.93;;
20443;SDS011;10381;53.730;10.010;2023-12-04T21:08:53;12.23;;;7.50;;
20443;SDS011;10381;53.730;10.010;2023-12-04T21:12:53;8.90;;;7.28;;
20443;SDS011;10381;53.730;10.010;2023-12-04T21:16:54;8.30;;;7.23;;
20443;SDS011;10381;53.730;10.010;2023-12-04T21:20:54;11.43;;;7.50;;
20443;SDS011;10381;53.730;10.010;2023-12-04T21:24:55;10.07;;;7.32;;
20443;SDS011;10381;53.730;10.010;2023-12-04T21:28:56;13.50;;;7.88;;
20443;SDS011;10381;53.730;10.010;2023-12-04T21:32:57;14.35;;;8.20;;
20443;SDS011;10381;53.730;10.010;2023-12-04T21:36:57;7.07;;;6.00;;
20443;SDS011;10381;53.730;10.010;2023-12-04T21:40:57;14.50;;;8.70;;
20443;SDS011;10381;53.730;10.010;2023-12-04T21:44:57;13.50;;;6.87;;
20443;SDS011;10381;53.730;10.010;2023-12-04T21:48:58;8.75;;;6.35;;
20443;SDS011;10381;53.730;10.010;2023-12-04T21:52:58;12.65;;;6.13;;
20443;SDS011;10381;53.730;10.010;2023-12-04T21:56:58;12.17;;;6.20;;
20443;SDS011;10381;53.730;10.010;2023-12-04T22:00:59;11.80;;;6.43;;
20443;SDS011;10381;53.730;10.010;2023-12-04T22:04:59;17.05;;;7.38;;
20443;SDS011;10381;53.730;10.010;2023-12-04T22:09:00;8.60;;;5.80;;
20443;SDS011;10381;53.730;10.010;2023-12-04T22:13:00;8.55;;;7.47;;
20443;SDS011;10381;53.730;10.010;2023-12-04T22:17:00;11.90;;;6.70;;
20443;SDS011;10381;53.730;10.010;2023-12-04T22:21:00;17.20;;;5.57;;
20443;SDS011;10381;53.730;10.010;2023-12-04T22:25:01;12.30;;;6.23;;
20443;SDS011;10381;53.730;10.010;2023-12-04T22:29:01;17.23;;;7.10;;
20443;SDS011;10381;53.730;10.010;2023-12-04T22:33:02;10.20;;;7.40;;
20443;SDS011;10381;53.730;10.010;2023-12-04T22:37:02;8.38;;;6.22;;
20443;SDS011;10381;53.730;10.010;2023-12-04T22:41:03;8.48;;;6.55;;
20443;SDS011;10381;53.730;10.010;2023-12-04T22:45:04;24.20;;;8.50;;
20443;SDS011;10381;53.730;10.010;2023-12-04T22:49:05;9.60;;;6.20;;
20443;SDS011;10381;53.730;10.010;2023-12-04T22:53:05;15.93;;;8.00;;
20443;SDS011;10381;53.730;10.010;2023-12-04T22:57:05;24.17;;;7.10;;
20443;SDS011;10381;53.730;10.010;2023-12-04T23:01:06;14.20;;;6.53;;
20443;SDS011;10381;53.730;10.010;2023-12-04T23:05:06;10.65;;;6.85;;
20443;SDS011;10381;53.730;10.010;2023-12-04T23:09:07;16.63;;;6.22;;
20443;SDS011;10381;53.730;10.010;2023-12-04T23:13:07;8.83;;;6.27;;
20443;SDS011;10381;53.730;10.010;2023-12-04T23:17:07;20.98;;;7.43;;
20443;SDS011;10381;53.730;10.010;2023-12-04T23:21:08;17.43;;;7.13;;
20443;SDS011;10381;53.730;10.010;2023-12-04T23:25:08;16.60;;;7.30;;
20443;SDS011;10381;53.730;10.010;2023-12-04T23:29:08;7.53;;;6.18;;
20443;SDS011;10381;53.730;10.010;2023-12-04T23:33:09;16.80;;;6.90;;